Time;durP1;ratioP1;P1;durP2;ratioP2;P2;SDS_P1;SDS_P2;PMS_P1;PMS_P2;Temp;Humidity;BMP_temperature;BMP_pressure;BME280_temperature;BME280_humidity;BME280_pressure;Samples;Min_cycle;Max_cycle;Signal;HPM_P1;HPM_P2
2023/04/24 00:00:00;;;;;;;1.90;0.50;;;;;;;;;;5053424;28;20029;-80
2023/04/24 00:02:26;;;;;;;0.90;0.50;;;;;;;;;;5055651;28;20083;-81
2023/04/24 00:04:52;;;;;;;2.07;0.73;;;;;;;;;;5053562;28;20085;-80
2023/04/24 00:07:21;;;;;;;1.70;1.13;;;;;;;;;;5053579;28;20047;-80
2023/04/24 00:09:47;;;;;;;2.43;0.70;;;;;;;;;;5048949;28;20029;-81
2023/04/24 00:12:13;;;;;;;1.73;0.60;;;;;;;;;;4922402;28;3832002;-80
2023/04/24 00:14:41;;;;;;;1.13;0.80;;;;;;;;;;5074115;28;20092;-81
2023/04/24 00:17:07;;;;;;;0.97;0.73;;;;;;;;;;5074300;28;20033;-82
2023/04/24 00:19:35;;;;;;;0.90;0.53;;;;;;;;;;5076318;28;20025;-78
2023/04/24 00:22:07;;;;;;;2.23;0.80;;;;;;;;;;5077687;28;20078;-81
2023/04/24 00:24:35;;;;;;;0.47;0.47;;;;;;;;;;5057172;28;20009;-78
2023/04/24 00:27:02;;;;;;;2.43;0.87;;;;;;;;;;5054729;28;21033;-80
2023/04/24 00:29:28;;;;;;;1.53;0.77;;;;;;;;;;5072751;28;20099;-78
2023/04/24 00:31:54;;;;;;;1.67;0.40;;;;;;;;;;5054358;28;20029;-80
2023/04/24 00:34:20;;;;;;;2.20;0.63;;;;;;;;;;5077043;28;20029;-78
2023/04/24 00:36:48;;;;;;;2.60;0.60;;;;;;;;;;5072824;28;20063;-79
2023/04/24 00:39:17;;;;;;;1.67;0.60;;;;;;;;;;5052680;28;20029;-78
2023/04/24 00:41:43;;;;;;;2.87;0.90;;;;;;;;;;5071587;28;20096;-78
2023/04/24 00:44:09;;;;;;;2.77;0.63;;;;;;;;;;5055500;28;20036;-79
2023/04/24 00:46:38;;;;;;;1.90;0.77;;;;;;;;;;5056546;28;20102;-79
2023/04/24 00:49:06;;;;;;;0.87;0.60;;;;;;;;;;5077316;28;20055;-78
2023/04/24 00:51:34;;;;;;;1.63;0.80;;;;;;;;;;5076717;28;20584;-80
2023/04/24 00:54:00;;;;;;;1.73;0.90;;;;;;;;;;5073818;28;20039;-80
2023/04/24 00:56:27;;;;;;;0.93;0.70;;;;;;;;;;5073089;28;20047;-78
2023/04/24 00:58:53;;;;;;;1.47;0.90;;;;;;;;;;5054854;28;20039;-79
2023/04/24 01:01:23;;;;;;;1.43;0.80;;;;;;;;;;5052671;28;20029;-79
2023/04/24 01:03:51;;;;;;;1.37;0.50;;;;;;;;;;5053682;28;20024;-79
2023/04/24 01:06:17;;;;;;;4.87;1.20;;;;;;;;;;5075620;28;20017;-79
2023/04/24 01:08:44;;;;;;;1.43;0.80;;;;;;;;;;5054620;28;20047;-79
2023/04/24 01:11:10;;;;;;;2.37;0.80;;;;;;;;;;5074723;28;20098;-79
2023/04/24 01:13:36;;;;;;;3.77;1.10;;;;;;;;;;5098125;22;20033;-79
2023/04/24 01:16:02;;;;;;;1.57;0.93;;;;;;;;;;5085153;28;20025;-78
2023/04/24 01:18:28;;;;;;;2.10;0.80;;;;;;;;;;5083490;28;20032;-78
2023/04/24 01:20:57;;;;;;;2.93;1.30;;;;;;;;;;5086529;28;20076;-79
2023/04/24 01:23:23;;;;;;;3.00;1.30;;;;;;;;;;5085411;28;20017;-78
2023/04/24 01:25:51;;;;;;;1.20;0.97;;;;;;;;;;5066932;28;20025;-79
2023/04/24 01:28:22;;;;;;;2.47;1.90;;;;;;;;;;5074094;28;20029;-79
2023/04/24 01:30:48;;;;;;;2.73;1.67;;;;;;;;;;5073329;28;20088;-79
2023/04/24 01:33:15;;;;;;;6.47;2.53;;;;;;;;;;5083161;28;20027;-78
2023/04/24 01:35:41;;;;;;;3.30;2.00;;;;;;;;;;5068466;28;20084;-79
2023/04/24 01:38:07;;;;;;;3.23;2.00;;;;;;;;;;5072849;28;20032;-79
2023/04/24 01:40:33;;;;;;;5.87;2.47;;;;;;;;;;5082746;28;20013;-79
2023/04/24 01:42:59;;;;;;;4.13;2.87;;;;;;;;;;5082784;28;20071;-79
2023/04/24 01:45:25;;;;;;;4.27;3.07;;;;;;;;;;5084779;28;20009;-78
2023/04/24 01:47:54;;;;;;;7.57;3.30;;;;;;;;;;5084591;28;20017;-78
2023/04/24 01:50:20;;;;;;;6.20;2.77;;;;;;;;;;5082998;28;20029;-78
2023/04/24 01:52:46;;;;;;;4.53;3.10;;;;;;;;;;5085601;28;20021;-80
2023/04/24 01:55:14;;;;;;;8.40;3.87;;;;;;;;;;5082055;28;20054;-77
2023/04/24 01:57:43;;;;;;;6.30;3.30;;;;;;;;;;5081462;28;20036;-77
2023/04/24 02:00:12;;;;;;;6.07;3.13;;;;;;;;;;5080224;28;20082;-78
2023/04/24 02:02:39;;;;;;;6.37;4.07;;;;;;;;;;5082214;28;20037;-77
2023/04/24 02:05:07;;;;;;;7.60;4.20;;;;;;;;;;5063670;28;20017;-80
2023/04/24 02:07:35;;;;;;;6.37;4.70;;;;;;;;;;5071403;28;20021;-79
2023/04/24 02:10:01;;;;;;;7.10;4.73;;;;;;;;;;5072942;28;20029;-79
2023/04/24 02:12:29;;;;;;;8.30;5.40;;;;;;;;;;5080422;28;20104;-79
2023/04/24 02:14:55;;;;;;;8.83;4.80;;;;;;;;;;5080296;28;20017;-78
2023/04/24 02:17:22;;;;;;;8.03;5.23;;;;;;;;;;5083592;28;20099;-80
2023/04/24 02:19:48;;;;;;;10.73;6.53;;;;;;;;;;5081151;28;20140;-79
2023/04/24 02:22:17;;;;;;;7.80;5.67;;;;;;;;;;5073174;28;20051;-78
2023/04/24 02:24:43;;;;;;;11.97;6.50;;;;;;;;;;5064747;28;20028;-79
2023/04/24 02:27:10;;;;;;;12.10;6.00;;;;;;;;;;5070461;28;20044;-78
2023/04/24 02:29:36;;;;;;;8.37;5.37;;;;;;;;;;5081093;28;20082;-78
2023/04/24 02:32:02;;;;;;;7.33;5.13;;;;;;;;;;5080406;28;20048;-79
2023/04/24 02:34:30;;;;;;;9.37;5.27;;;;;;;;;;5079142;28;20106;-78
2023/04/24 02:36:56;;;;;;;8.03;5.20;;;;;;;;;;5080812;28;20053;-78
2023/04/24 02:39:22;;;;;;;12.07;4.90;;;;;;;;;;5080785;28;20028;-79
2023/04/24 02:41:51;;;;;;;7.80;4.93;;;;;;;;;;5065254;28;20044;-79
2023/04/24 02:44:17;;;;;;;8.00;4.77;;;;;;;;;;5081460;28;20021;-80
2023/04/24 02:46:43;;;;;;;7.30;4.50;;;;;;;;;;5082260;28;20025;-78
2023/04/24 02:49:14;;;;;;;7.23;4.80;;;;;;;;;;5068360;28;20021;-79
2023/04/24 02:51:41;;;;;;;9.07;5.43;;;;;;;;;;5072645;28;20057;-78
2023/04/24 02:54:08;;;;;;;10.13;5.17;;;;;;;;;;5064155;28;20013;-78
2023/04/24 02:56:34;;;;;;;7.83;5.03;;;;;;;;;;5081242;28;20029;-79
2023/04/24 02:59:03;;;;;;;11.23;4.90;;;;;;;;;;5080366;28;20062;-78
2023/04/24 03:01:29;;;;;;;8.70;6.60;;;;;;;;;;5065513;28;20033;-79
2023/04/24 03:03:57;;;;;;;11.80;6.60;;;;;;;;;;5080618;28;20037;-79
2023/04/24 03:06:26;;;;;;;9.30;6.07;;;;;;;;;;5071052;28;20028;-79
2023/04/24 03:08:52;;;;;;;11.70;6.00;;;;;;;;;;5067551;28;20019;-79
2023/04/24 03:11:19;;;;;;;8.73;6.00;;;;;;;;;;5081198;28;20017;-79
2023/04/24 03:13:48;;;;;;;11.63;6.60;;;;;;;;;;5079589;28;20024;-79
2023/04/24 03:16:16;;;;;;;9.37;5.67;;;;;;;;;;5079684;28;20092;-78
2023/04/24 03:18:45;;;;;;;11.60;7.00;;;;;;;;;;5081015;28;20044;-78
2023/04/24 03:21:31;;;;;;;9.33;6.57;;;;;;;;;;5067379;28;20047;-78
2023/04/24 03:24:00;;;;;;;13.40;7.07;;;;;;;;;;5071262;28;20102;-79
2023/04/24 03:26:26;;;;;;;12.30;6.80;;;;;;;;;;5081716;28;20009;-80
2023/04/24 03:28:52;;;;;;;9.50;6.10;;;;;;;;;;5081426;28;20024;-79
2023/04/24 03:31:20;;;;;;;12.97;6.80;;;;;;;;;;5081507;28;20036;-80
2023/04/24 03:33:47;;;;;;;17.87;7.17;;;;;;;;;;5079486;28;20028;-78
2023/04/24 03:36:13;;;;;;;11.70;6.57;;;;;;;;;;5082848;28;20028;-78
2023/04/24 03:38:39;;;;;;;14.30;7.27;;;;;;;;;;5084074;28;20060;-78
2023/04/24 03:41:05;;;;;;;8.77;6.43;;;;;;;;;;5082645;28;20052;-78
2023/04/24 03:43:33;;;;;;;14.20;7.73;;;;;;;;;;5078027;28;20044;-79
2023/04/24 03:46:01;;;;;;;12.37;7.20;;;;;;;;;;5086039;28;20029;-79
2023/04/24 03:48:27;;;;;;;10.87;7.07;;;;;;;;;;5076106;28;20047;-78
2023/04/24 03:51:01;;;;;;;11.87;7.00;;;;;;;;;;5083858;28;20055;-78
2023/04/24 03:53:27;;;;;;;18.67;6.70;;;;;;;;;;5084141;28;20036;-79
2023/04/24 03:55:53;;;;;;;11.67;6.43;;;;;;;;;;5069672;28;20016;-80
2023/04/24 03:58:19;;;;;;;9.67;6.27;;;;;;;;;;5073244;28;20025;-79
2023/04/24 04:00:47;;;;;;;10.77;7.03;;;;;;;;;;5084339;28;20020;-79
2023/04/24 04:03:14;;;;;;;16.03;6.73;;;;;;;;;;5067060;28;21095;-79
2023/04/24 04:05:42;;;;;;;11.83;5.80;;;;;;;;;;5083518;28;20029;-79
2023/04/24 04:08:14;;;;;;;14.00;6.57;;;;;;;;;;5068666;28;20024;-78
2023/04/24 04:10:41;;;;;;;12.65;6.93;;;;;;;;;;5067419;28;20055;-79
2023/04/24 04:13:07;;;;;;;10.30;6.60;;;;;;;;;;5069678;28;20024;-78
2023/04/24 04:15:33;;;;;;;11.60;6.37;;;;;;;;;;5085073;28;20047;-79
2023/04/24 04:17:59;;;;;;;13.97;8.33;;;;;;;;;;5067023;28;20097;-79
2023/04/24 04:20:25;;;;;;;11.27;6.60;;;;;;;;;;5066844;28;20041;-79
2023/04/24 04:22:51;;;;;;;11.63;6.73;;;;;;;;;;5070111;28;20047;-79
2023/04/24 04:25:19;;;;;;;10.37;6.33;;;;;;;;;;5083679;28;20013;-79
2023/04/24 04:27:47;;;;;;;13.30;6.87;;;;;;;;;;5083725;28;20065;-79
2023/04/24 04:30:13;;;;;;;10.87;6.60;;;;;;;;;;5083393;28;20025;-79
2023/04/24 04:32:42;;;;;;;11.83;6.47;;;;;;;;;;5071729;28;20093;-79
2023/04/24 04:35:13;;;;;;;9.83;6.03;;;;;;;;;;5076340;28;20036;-79
2023/04/24 04:37:39;;;;;;;10.73;5.80;;;;;;;;;;5078434;28;20025;-79
2023/04/24 04:40:11;;;;;;;10.90;5.90;;;;;;;;;;5076877;28;20009;-80
2023/04/24 04:42:40;;;;;;;8.48;5.88;;;;;;;;;;5086113;28;20047;-79
2023/04/24 04:45:09;;;;;;;9.60;5.47;;;;;;;;;;5084899;28;20028;-79
2023/04/24 04:47:35;;;;;;;16.07;5.40;;;;;;;;;;5067593;28;20074;-79
2023/04/24 04:50:03;;;;;;;8.57;5.27;;;;;;;;;;5072695;28;20013;-80
2023/04/24 04:52:29;;;;;;;12.63;6.50;;;;;;;;;;5084177;28;20010;-79
2023/04/24 04:54:55;;;;;;;8.83;5.23;;;;;;;;;;5083148;28;20016;-78
2023/04/24 04:57:21;;;;;;;7.40;5.17;;;;;;;;;;5075425;28;20021;-79
2023/04/24 04:59:47;;;;;;;8.60;5.07;;;;;;;;;;5080586;28;20044;-79
2023/04/24 05:02:13;;;;;;;9.37;5.47;;;;;;;;;;5085129;28;20036;-79
2023/04/24 05:04:39;;;;;;;8.10;5.50;;;;;;;;;;5084507;28;20012;-78
2023/04/24 05:07:10;;;;;;;7.37;4.83;;;;;;;;;;5084422;28;20024;-79
2023/04/24 05:09:38;;;;;;;11.40;5.73;;;;;;;;;;5077030;28;20021;-79
2023/04/24 05:12:04;;;;;;;8.87;5.10;;;;;;;;;;5084972;28;20020;-79
2023/04/24 05:14:33;;;;;;;10.27;5.33;;;;;;;;;;5071470;28;20044;-79
2023/04/24 05:17:01;;;;;;;11.33;5.53;;;;;;;;;;5085649;28;20055;-80
2023/04/24 05:19:27;;;;;;;11.90;5.80;;;;;;;;;;5075900;28;20088;-79
2023/04/24 05:21:53;;;;;;;8.67;4.80;;;;;;;;;;5080337;28;20041;-79
2023/04/24 05:24:24;;;;;;;11.17;5.07;;;;;;;;;;5074828;28;20025;-78
2023/04/24 05:26:50;;;;;;;11.10;4.33;;;;;;;;;;5085296;28;20033;-78
2023/04/24 05:29:23;;;;;;;6.23;4.63;;;;;;;;;;5083945;28;20037;-80
2023/04/24 05:31:52;;;;;;;7.60;4.60;;;;;;;;;;5083327;28;20013;-78
2023/04/24 05:34:18;;;;;;;10.63;5.40;;;;;;;;;;5084694;28;20085;-79
2023/04/24 05:36:44;;;;;;;10.00;6.20;;;;;;;;;;5074165;28;20074;-78
2023/04/24 05:39:13;;;;;;;13.43;6.27;;;;;;;;;;5083763;28;20037;-79
2023/04/24 05:41:41;;;;;;;11.37;7.03;;;;;;;;;;5064832;28;20032;-79
2023/04/24 05:44:10;;;;;;;11.03;6.87;;;;;;;;;;5064125;28;20028;-80
2023/04/24 05:46:36;;;;;;;8.40;6.00;;;;;;;;;;5082281;28;20033;-79
2023/04/24 05:49:04;;;;;;;11.90;7.13;;;;;;;;;;5067983;28;20051;-80
2023/04/24 05:51:33;;;;;;;11.53;7.20;;;;;;;;;;5079027;28;20044;-79
2023/04/24 05:53:59;;;;;;;12.63;6.80;;;;;;;;;;5068964;28;20017;-82
2023/04/24 05:56:33;;;;;;;14.47;7.60;;;;;;;;;;5065812;28;20027;-79
2023/04/24 05:59:08;;;;;;;10.47;6.77;;;;;;;;;;5081425;28;20081;-78
2023/04/24 06:01:35;;;;;;;6.77;4.93;;;;;;;;;;5077954;28;20051;-77
2023/04/24 06:04:01;;;;;;;10.20;5.63;;;;;;;;;;5065999;28;20032;-79
2023/04/24 06:06:28;;;;;;;9.50;5.20;;;;;;;;;;5079492;28;20044;-79
2023/04/24 06:08:55;;;;;;;9.53;5.90;;;;;;;;;;5064290;28;20031;-79
2023/04/24 06:11:24;;;;;;;8.73;5.27;;;;;;;;;;5064351;28;20017;-78
2023/04/24 06:13:58;;;;;;;7.97;5.37;;;;;;;;;;5082594;28;20041;-78
2023/04/24 06:16:34;;;;;;;;;;;;;;;;;;;;;
2023/04/24 06:19:03;;;;;;;6.90;2.63;;;;;;;;;;5079935;28;20061;-80
2023/04/24 06:21:31;;;;;;;3.10;2.40;;;;;;;;;;5078498;28;20033;-78
2023/04/24 06:23:57;;;;;;;3.53;2.57;;;;;;;;;;5062757;28;20053;-78
2023/04/24 06:26:26;;;;;;;4.20;2.07;;;;;;;;;;5081785;28;20008;-78
2023/04/24 06:28:53;;;;;;;3.17;2.70;;;;;;;;;;5081809;28;20025;-79
2023/04/24 06:31:19;;;;;;;4.10;2.97;;;;;;;;;;5070540;28;21062;-78
2023/04/24 06:33:52;;;;;;;5.57;2.67;;;;;;;;;;5064071;28;20036;-78
2023/04/24 06:36:29;;;;;;;3.45;2.70;;;;;;;;;;5081344;28;20082;-78
2023/04/24 06:44:10;;;;;;;4.10;2.73;;;;;;;;;;5046598;28;20053;-77
2023/04/24 06:46:52;;;;;;;3.77;2.87;;;;;;;;;;5045938;28;20029;-79
2023/04/24 06:49:20;;;;;;;4.73;2.47;;;;;;;;;;5046792;28;20099;-79
2023/04/24 06:51:56;;;;;;;6.47;2.27;;;;;;;;;;5051979;28;20052;-78
2023/04/24 06:54:24;;;;;;;3.03;2.33;;;;;;;;;;5062598;28;20085;-80
2023/04/24 06:57:00;;;;;;;4.13;3.03;;;;;;;;;;5048712;28;20025;-76
2023/04/24 06:59:31;;;;;;;4.13;2.90;;;;;;;;;;5064146;28;20125;-79
2023/04/24 07:01:57;;;;;;;6.33;2.83;;;;;;;;;;5049411;28;20056;-77
2023/04/24 07:04:49;;;;;;;6.37;2.97;;;;;;;;;;5062446;28;20102;-76
2023/04/24 07:07:40;;;;;;;9.27;4.13;;;;;;;;;;5056125;28;20044;-77
2023/04/24 07:10:08;;;;;;;8.37;4.70;;;;;;;;;;5060366;28;20306;-78
2023/04/24 07:12:37;;;;;;;6.30;3.63;;;;;;;;;;5059691;28;20033;-76
2023/04/24 07:15:03;;;;;;;6.50;4.10;;;;;;;;;;5055804;28;20014;-77
2023/04/24 07:17:42;;;;;;;;;;;;;;;;;;;;;
2023/04/24 07:20:14;;;;;;;6.38;3.95;;;;;;;;;;5054033;28;20033;-79
2023/04/24 07:22:53;;;;;;;;;;;;;;;;;;;;;
2023/04/24 07:25:20;;;;;;;6.97;4.40;;;;;;;;;;5055407;28;20033;-78
2023/04/24 07:27:53;;;;;;;7.90;5.20;;;;;;;;;;5051673;28;20124;-77
2023/04/24 07:30:22;;;;;;;5.80;3.00;;;;;;;;;;5039566;28;20005;-78
2023/04/24 07:32:57;;;;;;;2.70;2.07;;;;;;;;;;5038994;28;20015;-78
2023/04/24 07:35:29;;;;;;;3.63;2.93;;;;;;;;;;5053409;28;20013;-77
2023/04/24 07:37:58;;;;;;;8.52;3.85;;;;;;;;;;5037339;28;20217;-77
2023/04/24 07:40:27;;;;;;;5.73;3.00;;;;;;;;;;5052925;28;20016;-77
2023/04/24 07:42:55;;;;;;;6.60;2.80;;;;;;;;;;5055955;28;20076;-76
2023/04/24 07:45:25;;;;;;;3.07;1.80;;;;;;;;;;5050386;28;20055;-75
2023/04/24 07:48:16;;;;;;;1.77;1.37;;;;;;;;;;5048281;28;20028;-77
2023/04/24 07:50:44;;;;;;;4.93;1.70;;;;;;;;;;5048418;28;20128;-76
2023/04/24 07:53:13;;;;;;;5.87;3.27;;;;;;;;;;5047114;28;20067;-79
2023/04/24 07:55:39;;;;;;;5.77;1.80;;;;;;;;;;5048438;28;20056;-76
2023/04/24 07:58:05;;;;;;;7.83;2.40;;;;;;;;;;5037208;28;21198;-76
2023/04/24 08:00:34;;;;;;;4.83;1.93;;;;;;;;;;5048251;28;20060;-76
2023/04/24 08:03:00;;;;;;;3.30;1.47;;;;;;;;;;5047851;28;20557;-76
2023/04/24 08:05:33;;;;;;;3.37;1.23;;;;;;;;;;5048500;28;20022;-75
2023/04/24 08:08:02;;;;;;;2.30;1.53;;;;;;;;;;5050253;28;20014;-77
2023/04/24 08:10:28;;;;;;;2.47;1.13;;;;;;;;;;5030635;28;20025;-78
2023/04/24 08:12:56;;;;;;;1.10;0.83;;;;;;;;;;5048432;28;20043;-76
2023/04/24 08:15:22;;;;;;;3.40;1.90;;;;;;;;;;5037416;28;20099;-76
2023/04/24 08:17:49;;;;;;;5.87;2.30;;;;;;;;;;5037390;28;20097;-77
2023/04/24 08:20:18;;;;;;;4.53;2.37;;;;;;;;;;5066554;28;20041;-78
2023/04/24 08:22:46;;;;;;;4.47;2.70;;;;;;;;;;5050761;28;20049;-78
2023/04/24 08:25:13;;;;;;;2.90;2.30;;;;;;;;;;5041764;28;20028;-78
2023/04/24 08:27:39;;;;;;;3.27;2.27;;;;;;;;;;5050867;28;20025;-76
2023/04/24 08:30:05;;;;;;;3.93;2.10;;;;;;;;;;5050881;28;20093;-77
2023/04/24 08:32:36;;;;;;;3.13;1.90;;;;;;;;;;5050870;28;20026;-77
2023/04/24 08:35:03;;;;;;;8.03;2.70;;;;;;;;;;5051562;28;20018;-77
2023/04/24 08:37:31;;;;;;;5.00;2.20;;;;;;;;;;5034362;28;20022;-76
2023/04/24 08:39:57;;;;;;;6.43;1.43;;;;;;;;;;5040143;28;20013;-77
2023/04/24 08:42:24;;;;;;;4.00;2.30;;;;;;;;;;5033695;28;21194;-75
2023/04/24 08:44:50;;;;;;;2.93;1.80;;;;;;;;;;5040733;28;20057;-75
2023/04/24 08:47:16;;;;;;;4.47;2.23;;;;;;;;;;5040416;28;20105;-75
2023/04/24 08:49:43;;;;;;;4.03;2.30;;;;;;;;;;5049781;28;20042;-76
2023/04/24 08:52:12;;;;;;;5.43;2.87;;;;;;;;;;5050150;28;20026;-76
2023/04/24 08:54:46;;;;;;;4.40;3.07;;;;;;;;;;5033568;28;20041;-77
2023/04/24 08:57:17;;;;;;;6.17;2.53;;;;;;;;;;5050334;28;20088;-75
2023/04/24 08:59:46;;;;;;;3.77;3.10;;;;;;;;;;5066702;28;20048;-76
2023/04/24 09:02:15;;;;;;;7.43;4.07;;;;;;;;;;5038723;28;20041;-76
2023/04/24 09:04:47;;;;;;;5.70;2.87;;;;;;;;;;5033518;28;20033;-79
2023/04/24 09:07:23;;;;;;;14.23;3.92;;;;;;;;;;5049880;28;20045;-77
2023/04/24 09:09:57;;;;;;;8.57;4.77;;;;;;;;;;5049790;28;20021;-76
2023/04/24 09:12:28;;;;;;;8.47;3.83;;;;;;;;;;5066560;28;20029;-78
2023/04/24 09:14:55;;;;;;;14.90;7.17;;;7.00;99.90;;;;;;5050704;28;20167;-75
2023/04/24 09:17:30;;;;;;;16.90;8.77;;;7.00;99.90;;;;;;5066236;28;20049;-74
2023/04/24 09:19:55;;;;;;;16.93;9.07;;;7.10;99.90;;;;;;5022446;28;20037;-75
2023/04/24 09:22:24;;;;;;;19.67;10.07;;;7.00;99.90;;;;;;5032924;28;20041;-75
2023/04/24 09:25:07;;;;;;;22.70;11.37;;;;;;;;;;5033295;28;20029;-76
2023/04/24 09:27:40;;;;;;;21.77;10.87;;;7.20;99.90;;;;;;5049292;28;20481;-77
2023/04/24 09:30:17;;;;;;;;;;;;;;;;;;;;;
2023/04/24 09:32:46;;;;;;;19.27;12.40;;;7.20;99.90;;;;;;5049353;28;20056;-75
2023/04/24 09:35:13;;;;;;;24.03;13.37;;;;;;;;;;5032858;28;20026;-74
2023/04/24 09:37:43;;;;;;;29.23;13.30;;;;;;;;;;5049373;28;20156;-74
2023/04/24 09:40:11;;;;;;;23.83;13.17;;;;;;;;;;5048965;28;20028;-78
2023/04/24 09:42:44;;;;;;;25.87;13.63;;;;;;;;;;5048721;28;20043;-75
2023/04/24 09:45:11;;;;;;;27.57;14.07;;;;;;;;;;5050127;28;20032;-75
2023/04/24 09:47:38;;;;;;;35.03;13.87;;;;;;;;;;5048925;28;20179;-75
2023/04/24 09:50:11;;;;;;;34.17;13.53;;;;;;;;;;5049842;28;20032;-77
2023/04/24 09:52:41;;;;;;;28.07;14.00;;;7.40;99.90;;;;;;5048970;28;21133;-77
2023/04/24 09:55:39;;;;;;;30.83;16.43;;;;;;;;;;5022393;28;20055;-74
2023/04/24 09:58:11;;;;;;;28.60;13.63;;;;;;;;;;5049242;28;20037;-78
2023/04/24 10:00:37;;;;;;;28.27;12.57;;;;;;;;;;5048629;28;20026;-75
2023/04/24 10:03:07;;;;;;;20.23;11.77;;;;;;;;;;5039665;28;20135;-75
2023/04/24 10:05:37;;;;;;;20.77;11.33;;;;;;;;;;5031986;28;20032;-75
2023/04/24 10:08:04;;;;;;;18.80;11.00;;;;;;;;;;5050013;28;20022;-75
2023/04/24 10:10:39;;;;;;;26.27;10.07;;;;;;;;;;5048657;28;20036;-74
2023/04/24 10:13:06;;;;;;;19.73;9.83;;;;;;;;;;5048867;28;20040;-76
2023/04/24 10:15:32;;;;;;;20.00;10.40;;;;;;;;;;5048693;28;20033;-77
2023/04/24 10:18:01;;;;;;;24.40;9.67;;;;;;;;;;5049363;28;20021;-76
2023/04/24 10:20:29;;;;;;;18.03;8.20;;;;;;;;;;5046845;28;20436;-75
2023/04/24 10:23:08;;;;;;;;;;;;;;;;;;;;;
2023/04/24 10:25:36;;;;;;;17.77;6.23;;;;;;;;;;5049039;28;20060;-77
2023/04/24 10:28:02;;;;;;;17.63;8.17;;;;;;;;;;5048847;28;20021;-75
2023/04/24 10:30:30;;;;;;;21.80;7.87;;;;;;;;;;5049335;28;20048;-75
2023/04/24 10:32:59;;;;;;;23.53;7.23;;;;;;;;;;5032649;28;20021;-75
2023/04/24 10:35:26;;;;;;;21.63;7.90;;;;;;;;;;5039336;28;20097;-75
2023/04/24 10:37:55;;;;;;;19.30;6.53;;;;;;;;;;5049307;28;20029;-76
2023/04/24 10:40:34;;;;;;;12.60;6.00;;;;;;;;;;5038244;28;20049;-77
2023/04/24 10:43:07;;;;;;;14.17;5.80;;;;;;;;;;5049275;28;20053;-75
2023/04/24 10:45:34;;;;;;;15.47;5.77;;;;;;;;;;5049020;28;20241;-76
2023/04/24 10:48:05;;;;;;;15.33;6.33;;;;;;;;;;5049552;28;20026;-76
2023/04/24 10:50:44;;;;;;;14.73;5.60;;;;;;;;;;5048476;28;20066;-76
2023/04/24 10:53:16;;;;;;;15.37;6.13;;;;;;;;;;5038334;28;20022;-77
2023/04/24 10:55:43;;;;;;;;;;;;;;;;;;5048214;28;20036;-79
2023/04/24 10:58:09;;;;;;;14.57;6.17;;;;;;;;;;5064727;28;19921;-75
2023/04/24 11:00:41;;;;;;;16.50;7.90;;;;;;;;;;5038505;28;20057;-77
2023/04/24 11:03:28;;;;;;;21.67;6.55;;;;;;;;;;5038124;28;20104;-78
2023/04/24 11:05:57;;;;;;;20.30;6.77;;;;;;;;;;5031753;28;20140;-75
2023/04/24 11:08:23;;;;;;;24.03;9.00;;;;;;;;;;5038365;28;20097;-75
2023/04/24 11:11:07;;;;;;;23.40;9.00;;;;;;;;;;5047967;28;20103;-76
2023/04/24 11:13:58;;;;;;;35.00;10.80;;;;;;;;;;5030848;28;20053;-76
2023/04/24 11:16:37;;;;;;;23.20;11.67;;;;;;;;;;5048495;28;20029;-80
2023/04/24 11:19:19;;;;;;;;;;;;;;;;;;;;;
2023/04/24 11:21:51;;;;;;;25.15;9.85;;;;;;;;;;5048482;28;20064;-76
2023/04/24 11:24:33;;;;;;;17.93;9.83;;;;;;;;;;5038626;28;20029;-75
2023/04/24 11:27:16;;;;;;;23.23;9.27;;;;;;;;;;5039759;28;20026;-75
2023/04/24 11:30:04;;;;;;;29.47;9.70;;;;;;;;;;5040617;28;20080;-76
2023/04/24 11:32:37;;;;;;;14.40;7.73;;;;;;;;;;5050365;28;20022;-74
2023/04/24 11:35:03;;;;;;;;;;;;;;;;;;5051676;28;20026;-75
2023/04/24 11:37:39;;;;;;;18.63;6.90;;;;;;;;;;5066895;28;19909;-76
2023/04/24 11:40:10;;;;;;;20.60;8.70;;;;;;;;;;5049821;28;20041;-76
2023/04/24 11:42:55;;;;;;;15.63;7.43;;;;;;;;;;5050924;28;20053;-75
2023/04/24 11:45:28;;;;;;;22.60;9.17;;;;;;;;;;5047763;28;20115;-76
2023/04/24 11:47:56;;;;;;;19.20;9.70;;;;;;;;;;5048202;28;20071;-76
2023/04/24 11:50:30;;;;;;;24.37;9.90;;;;;;;;;;5066343;28;20029;-76
2023/04/24 11:52:57;;;;;;;30.90;10.83;;;;;;;;;;5050243;28;20014;-75
2023/04/24 11:55:26;;;;;;;27.37;11.43;;;;;;;;;;5043586;28;20044;-75
2023/04/24 11:57:57;;;;;;;29.57;9.93;;;;;;;;;;5053453;28;20044;-75
2023/04/24 12:00:27;;;;;;;24.03;9.97;;;;;;;;;;5027346;28;20013;-75
2023/04/24 12:03:04;;;;;;;16.13;9.23;;;;;;;;;;5054486;28;20041;-75
2023/04/24 12:05:33;;;;;;;20.40;9.23;;;;;;;;;;5053823;28;20022;-77
2023/04/24 12:07:59;;;;;;;24.40;9.40;;;;;;;;;;5055746;28;20028;-75
2023/04/24 12:10:28;;;;;;;21.23;9.80;;;;;;;;;;5044350;28;20036;-75
2023/04/24 12:12:56;;;;;;;17.37;7.47;;;;;;;;;;5053210;28;20029;-77
2023/04/24 12:15:22;;;;;;;15.43;7.90;;;;;;;;;;5068705;28;20033;-76
2023/04/24 12:17:53;;;;;;;13.97;7.40;;;;;;;;;;5051304;28;20060;-77
2023/04/24 12:20:27;;;;;;;28.73;9.37;;;;;;;;;;5051799;28;21178;-77
2023/04/24 12:22:56;;;;;;;21.27;8.40;;;;;;;;;;5053149;28;20048;-77
2023/04/24 12:25:28;;;;;;;20.77;8.10;;;;;;;;;;5035798;28;20014;-77
2023/04/24 12:28:16;;;;;;;18.17;8.57;;;;;;;;;;5069531;28;20087;-77
2023/04/24 12:30:50;;;;;;;14.07;6.40;;;;;;;;;;5042027;28;20094;-77
2023/04/24 12:33:19;;;;;;;17.00;6.40;;;;;;;;;;5054930;28;20051;-77
2023/04/24 12:35:46;;;;;;;14.70;6.93;;;;;;;;;;5053734;28;20089;-77
2023/04/24 12:38:13;;;;;;;24.13;6.73;;;;;;;;;;5054790;28;20041;-76
2023/04/24 12:40:42;;;;;;;17.13;6.10;;;;;;;;;;5053667;28;20025;-77
2023/04/24 12:43:20;;;;;;;15.20;6.20;;;;;;;;;;5054675;28;20041;-77
2023/04/24 12:45:49;;;;;;;21.63;6.50;;;;;;;;;;5042780;28;20037;-77
2023/04/24 12:48:15;;;;;;;18.77;5.70;;;;;;;;;;5052606;28;20026;-77
2023/04/24 12:50:42;;;;;;;14.10;5.50;;;;;;;;;;5042906;28;20048;-77
2023/04/24 12:53:11;;;;;;;17.17;5.77;;;;;;;;;;5042899;28;20029;-77
2023/04/24 12:55:37;;;;;;;16.17;6.03;;;;;;;;;;5037412;28;20017;-78
2023/04/24 12:58:03;;;;;;;19.37;5.40;;;;;;;;;;5052906;28;20048;-78
2023/04/24 13:00:32;;;;;;;22.77;6.03;;;;;;;;;;5053054;28;20104;-78
2023/04/24 13:02:58;;;;;;;16.53;5.47;;;;;;;;;;5053855;28;20089;-78
2023/04/24 13:05:28;;;;;;;11.83;5.53;;;;;;;;;;5052387;28;20025;-78
2023/04/24 13:07:54;;;;;;;14.63;5.60;;;;;;;;;;5053438;28;20111;-78
2023/04/24 13:10:20;;;;;;;12.40;5.97;;;;;;;;;;5053168;28;20017;-78
2023/04/24 13:12:46;;;;;;;17.43;5.90;;;;;;;;;;5053397;28;20033;-78
2023/04/24 13:15:15;;;;;;;13.73;6.57;;;;;;;;;;5052812;28;20101;-78
2023/04/24 13:17:43;;;;;;;11.10;6.47;;;;;;;;;;5055945;28;20025;-78
2023/04/24 13:20:09;;;;;;;20.07;6.40;;;;;;;;;;5043560;28;20026;-78
2023/04/24 13:22:36;;;;;;;13.17;6.27;;;;;;;;;;5077393;23;20025;-78
2023/04/24 13:25:07;;;;;;;11.17;4.70;;;;;;;;;;5056767;28;20001;-78
2023/04/24 13:27:53;;;;;;;15.00;5.70;;;;;;;;;;5058132;28;20026;-77
2023/04/24 13:30:21;;;;;;;10.83;4.97;;;;;;;;;;5056892;28;20051;-78
2023/04/24 13:32:55;;;;;;;13.30;5.57;;;;;;;;;;5057440;28;20119;-78
2023/04/24 13:35:21;;;;;;;16.63;5.23;;;;;;;;;;5069646;28;20018;-79
2023/04/24 13:37:47;;;;;;;15.03;4.40;;;;;;;;;;5070121;28;20048;-78
2023/04/24 13:40:21;;;;;;;11.10;4.67;;;;;;;;;;5056552;28;20057;-77
2023/04/24 13:42:50;;;;;;;17.63;5.33;;;;;;;;;;5071813;28;20033;-77
2023/04/24 13:45:21;;;;;;;17.00;4.83;;;;;;;;;;5070939;28;20208;-78
2023/04/24 13:47:47;;;;;;;10.57;5.13;;;;;;;;;;5053677;28;20018;-77
2023/04/24 13:50:13;;;;;;;17.17;4.90;;;;;;;;;;5069483;28;20034;-77
2023/04/24 13:52:39;;;;;;;12.57;4.83;;;;;;;;;;5053012;28;20069;-78
2023/04/24 13:55:08;;;;;;;13.40;5.33;;;;;;;;;;5068311;28;20025;-78
2023/04/24 13:57:40;;;;;;;13.40;5.10;;;;;;;;;;5051777;28;20029;-77
2023/04/24 14:00:13;;;;;;;10.40;3.60;;;;;;;;;;5067803;28;20021;-78
2023/04/24 14:02:42;;;;;;;7.93;3.23;;;;;;;;;;5051982;28;20026;-77
2023/04/24 14:05:13;;;;;;;8.00;3.53;;;;;;;;;;5051144;28;20013;-77
2023/04/24 14:07:39;;;;;;;10.27;3.55;;;;;;;;;;5051881;28;20017;-77
2023/04/24 14:10:09;;;;;;;11.07;3.90;;;;;;;;;;5052068;28;20029;-77
2023/04/24 14:12:40;;;;;;;7.73;3.00;;;;;;;;;;5052137;28;21142;-77
2023/04/24 14:15:14;;;;;;;11.03;3.77;;;;;;;;;;5049812;28;20056;-76
2023/04/24 14:17:41;;;;;;;12.47;3.80;;;;;;;;;;5051100;28;20022;-77
2023/04/24 14:20:13;;;;;;;11.67;4.53;;;;;;;;;;5050758;28;20006;-77
2023/04/24 14:22:43;;;;;;;11.18;4.50;;;;;;;;;;5051987;28;21083;-77
2023/04/24 14:25:12;;;;;;;9.83;4.73;;;;;;;;;;5050974;28;20030;-78
2023/04/24 14:27:38;;;;;;;12.97;4.90;;;;;;;;;;5050389;28;20388;-77
2023/04/24 14:30:15;;;;;;;;;;;;;;;;;;;;;
2023/04/24 14:32:41;;;;;;;9.23;4.47;;;;;;;;;;5052470;28;20048;-78
2023/04/24 14:35:10;;;;;;;15.17;4.43;;;;;;;;;;5050936;28;20021;-77
2023/04/24 14:37:36;;;;;;;9.90;4.93;;;;;;;;;;5053032;28;20024;-77
2023/04/24 14:40:05;;;;;;;10.03;4.77;;;;;;;;;;5049994;28;20053;-77
2023/04/24 14:42:33;;;;;;;15.13;5.00;;;;;;;;;;5050711;28;20045;-79
2023/04/24 14:44:59;;;;;;;8.43;4.47;;;;;;;;;;5050568;28;20026;-77
2023/04/24 14:47:25;;;;;;;10.50;4.27;;;;;;;;;;5049969;28;20091;-77
2023/04/24 14:49:51;;;;;;;9.53;4.23;;;;;;;;;;5052174;28;20029;-77
2023/04/24 14:52:22;;;;;;;9.17;3.93;;;;;;;;;;5068070;28;20017;-77
2023/04/24 14:55:03;;;;;;;9.63;3.97;;;;;;;;;;5051214;28;20017;-76
2023/04/24 14:57:29;;;;;;;10.37;3.50;;;;;;;;;;5052369;28;20021;-77